Ashland, Massachusetts
Current Conditions -  °F | °C
As of 5:53 PM on Wednesday 26 Nov 2014 (Local Time) from KOWD Reporting Station
Moderate Rain Moderate Rain  
Wind Chill: 27°   Ceiling: 800
Heat Index: 36°   Visibility: 5mi
Dew Point: 34°   Wind: 15mph
Humidity: 93%   Direction: 20°NNE
Pressure: 29.83"   Gusts: 25mph
Location:  42.26°N, 71.46°W
Report Text: KOWD 262253Z 02013G22KT 5SM RA BR OVC008 02/01 A2983 RMK AO2 RAB2151 CIG 006V011 SLP102 P0027 T00220011 $
Loading
Personal Weather Stations






























Interactive Weather Map New forecast layout! Learn more

10-Day Weather Forecast

Advertisements
Track Severe Weather on mobile